Eagle Creek, Oregon
Current Conditions -  °F | °C
As of 11:53 AM on Thursday 25 Dec 2014 (Local Time) from KTTD Reporting Station
Overcast Overcast  
Wind Chill: 48°   Ceiling: 3800
Heat Index: 48°   Visibility: 10mi
Dew Point: 41°   Wind: 0mph
Humidity: 77%   Direction: NA
Pressure: 30.23"   Gusts: NA
Location:  45.36°N, 122.36°W
Report Text: KTTD 251953Z 00000KT 10SM BKN038 OVC050 09/05 A3023 RMK AO2 SLP237 T00890050
Loading
Personal Weather Stations






























Interactive Weather Map New forecast layout! Learn more

10-Day Weather Forecast

Advertisements
Track Severe Weather on mobile